sensor_id;sensor_type;location;lat;lon;timestamp;pressure;altitude;pressure_sealevel;temperature;humidity
12594;BME280;6362;50.208;9.182;2023-08-01T00:01:46;98653.78;;;16.08;100.00
12594;BME280;6362;50.208;9.182;2023-08-01T00:04:11;98648.53;;;16.08;100.00
12594;BME280;6362;50.208;9.182;2023-08-01T00:06:36;98649.31;;;16.10;100.00
12594;BME280;6362;50.208;9.182;2023-08-01T00:09:02;98648.00;;;16.02;100.00
12594;BME280;6362;50.208;9.182;2023-08-01T00:11:27;98637.09;;;16.09;100.00
12594;BME280;6362;50.208;9.182;2023-08-01T00:13:53;98636.13;;;16.12;100.00
12594;BME280;6362;50.208;9.182;2023-08-01T00:16:18;98627.78;;;16.04;100.00
12594;BME280;6362;50.208;9.182;2023-08-01T00:18:44;98621.06;;;15.98;100.00
12594;BME280;6362;50.208;9.182;2023-08-01T00:21:09;98603.66;;;15.97;100.00
12594;BME280;6362;50.208;9.182;2023-08-01T00:23:37;98588.09;;;15.94;100.00
12594;BME280;6362;50.208;9.182;2023-08-01T00:26:02;98588.75;;;15.98;100.00
12594;BME280;6362;50.208;9.182;2023-08-01T00:28:29;98584.22;;;16.01;100.00
12594;BME280;6362;50.208;9.182;2023-08-01T00:31:08;98577.41;;;15.97;100.00
12594;BME280;6362;50.208;9.182;2023-08-01T00:33:36;98570.25;;;16.01;100.00
12594;BME280;6362;50.208;9.182;2023-08-01T00:36:02;98566.69;;;16.02;100.00
12594;BME280;6362;50.208;9.182;2023-08-01T00:38:28;98555.50;;;15.98;100.00
12594;BME280;6362;50.208;9.182;2023-08-01T00:40:54;98547.97;;;15.92;100.00
12594;BME280;6362;50.208;9.182;2023-08-01T00:43:19;98543.75;;;15.90;100.00
12594;BME280;6362;50.208;9.182;2023-08-01T00:45:45;98539.97;;;15.95;100.00
12594;BME280;6362;50.208;9.182;2023-08-01T00:48:11;98533.53;;;16.01;100.00
12594;BME280;6362;50.208;9.182;2023-08-01T00:50:37;98520.44;;;16.01;100.00
12594;BME280;6362;50.208;9.182;2023-08-01T00:53:03;98518.03;;;15.96;100.00
12594;BME280;6362;50.208;9.182;2023-08-01T00:55:29;98517.53;;;15.90;100.00
12594;BME280;6362;50.208;9.182;2023-08-01T00:57:55;98514.19;;;15.86;100.00
12594;BME280;6362;50.208;9.182;2023-08-01T01:00:21;98506.41;;;15.84;100.00
12594;BME280;6362;50.208;9.182;2023-08-01T01:02:46;98490.50;;;15.88;100.00
12594;BME280;6362;50.208;9.182;2023-08-01T01:05:12;98493.09;;;15.89;100.00
12594;BME280;6362;50.208;9.182;2023-08-01T01:07:39;98487.00;;;15.89;100.00
12594;BME280;6362;50.208;9.182;2023-08-01T01:10:05;98477.66;;;15.83;100.00
12594;BME280;6362;50.208;9.182;2023-08-01T01:12:31;98479.88;;;15.91;100.00
12594;BME280;6362;50.208;9.182;2023-08-01T01:14:56;98469.75;;;16.00;100.00
12594;BME280;6362;50.208;9.182;2023-08-01T01:17:21;98465.59;;;15.96;100.00
12594;BME280;6362;50.208;9.182;2023-08-01T01:19:47;98467.06;;;16.02;100.00
12594;BME280;6362;50.208;9.182;2023-08-01T01:22:13;98464.53;;;16.00;100.00
12594;BME280;6362;50.208;9.182;2023-08-01T01:24:40;98442.13;;;16.10;100.00
12594;BME280;6362;50.208;9.182;2023-08-01T01:27:07;98451.25;;;16.19;100.00
12594;BME280;6362;50.208;9.182;2023-08-01T01:29:33;98445.84;;;16.22;100.00
12594;BME280;6362;50.208;9.182;2023-08-01T01:32:00;98435.84;;;16.13;100.00
12594;BME280;6362;50.208;9.182;2023-08-01T01:34:27;98433.38;;;16.10;100.00
12594;BME280;6362;50.208;9.182;2023-08-01T01:36:52;98432.53;;;16.09;100.00
12594;BME280;6362;50.208;9.182;2023-08-01T01:39:18;98434.16;;;16.12;100.00
12594;BME280;6362;50.208;9.182;2023-08-01T01:41:43;98423.66;;;16.12;100.00
12594;BME280;6362;50.208;9.182;2023-08-01T01:44:09;98422.75;;;16.13;100.00
12594;BME280;6362;50.208;9.182;2023-08-01T01:46:34;98415.97;;;16.09;100.00
12594;BME280;6362;50.208;9.182;2023-08-01T01:49:00;98412.50;;;16.08;100.00
12594;BME280;6362;50.208;9.182;2023-08-01T01:51:26;98407.00;;;16.13;100.00
12594;BME280;6362;50.208;9.182;2023-08-01T01:53:52;98406.25;;;16.11;100.00
12594;BME280;6362;50.208;9.182;2023-08-01T01:56:17;98409.53;;;16.15;100.00
12594;BME280;6362;50.208;9.182;2023-08-01T01:58:43;98416.03;;;16.07;100.00
12594;BME280;6362;50.208;9.182;2023-08-01T02:01:08;98418.34;;;16.14;100.00
12594;BME280;6362;50.208;9.182;2023-08-01T02:03:34;98418.78;;;16.22;100.00
12594;BME280;6362;50.208;9.182;2023-08-01T02:05:59;98396.34;;;16.32;100.00
12594;BME280;6362;50.208;9.182;2023-08-01T02:08:25;98393.91;;;16.29;100.00
12594;BME280;6362;50.208;9.182;2023-08-01T02:10:50;98404.03;;;16.35;100.00
12594;BME280;6362;50.208;9.182;2023-08-01T02:13:16;98393.41;;;16.38;100.00
12594;BME280;6362;50.208;9.182;2023-08-01T02:15:41;98375.53;;;16.45;100.00
12594;BME280;6362;50.208;9.182;2023-08-01T02:18:07;98363.25;;;16.45;100.00
12594;BME280;6362;50.208;9.182;2023-08-01T02:20:32;98354.75;;;16.56;100.00
12594;BME280;6362;50.208;9.182;2023-08-01T02:22:58;98377.69;;;16.52;100.00
12594;BME280;6362;50.208;9.182;2023-08-01T02:25:23;98381.34;;;16.50;100.00
12594;BME280;6362;50.208;9.182;2023-08-01T02:27:48;98368.72;;;16.56;100.00
12594;BME280;6362;50.208;9.182;2023-08-01T02:30:14;98363.63;;;16.53;100.00
12594;BME280;6362;50.208;9.182;2023-08-01T02:32:39;98358.22;;;16.56;100.00
12594;BME280;6362;50.208;9.182;2023-08-01T02:35:05;98349.31;;;16.59;100.00
12594;BME280;6362;50.208;9.182;2023-08-01T02:37:30;98352.78;;;16.59;100.00
12594;BME280;6362;50.208;9.182;2023-08-01T02:39:56;98352.97;;;16.56;100.00
12594;BME280;6362;50.208;9.182;2023-08-01T02:42:21;98339.59;;;16.61;100.00
12594;BME280;6362;50.208;9.182;2023-08-01T02:44:46;98327.47;;;16.58;100.00
12594;BME280;6362;50.208;9.182;2023-08-01T02:47:12;98319.97;;;16.52;100.00
12594;BME280;6362;50.208;9.182;2023-08-01T02:49:37;98324.28;;;16.53;100.00
12594;BME280;6362;50.208;9.182;2023-08-01T02:52:03;98315.06;;;16.46;100.00
12594;BME280;6362;50.208;9.182;2023-08-01T02:54:29;98304.47;;;16.48;100.00
12594;BME280;6362;50.208;9.182;2023-08-01T02:56:54;98306.34;;;16.46;100.00
12594;BME280;6362;50.208;9.182;2023-08-01T02:59:19;98289.50;;;16.50;100.00
12594;BME280;6362;50.208;9.182;2023-08-01T03:01:45;98290.50;;;16.47;100.00
12594;BME280;6362;50.208;9.182;2023-08-01T03:04:10;98279.53;;;16.41;100.00
12594;BME280;6362;50.208;9.182;2023-08-01T03:06:40;98282.75;;;16.46;100.00
12594;BME280;6362;50.208;9.182;2023-08-01T03:09:05;98277.28;;;16.49;100.00
12594;BME280;6362;50.208;9.182;2023-08-01T03:11:35;98282.84;;;16.44;100.00
12594;BME280;6362;50.208;9.182;2023-08-01T03:14:01;98284.06;;;16.53;100.00
12594;BME280;6362;50.208;9.182;2023-08-01T03:16:27;98277.81;;;16.55;100.00
12594;BME280;6362;50.208;9.182;2023-08-01T03:18:52;98265.69;;;16.53;100.00
12594;BME280;6362;50.208;9.182;2023-08-01T03:21:18;98268.22;;;16.54;100.00
12594;BME280;6362;50.208;9.182;2023-08-01T03:23:43;98268.41;;;16.51;100.00
12594;BME280;6362;50.208;9.182;2023-08-01T03:26:09;98263.75;;;16.56;100.00
12594;BME280;6362;50.208;9.182;2023-08-01T03:28:34;98247.22;;;16.54;100.00
12594;BME280;6362;50.208;9.182;2023-08-01T03:31:00;98281.91;;;16.59;100.00
12594;BME280;6362;50.208;9.182;2023-08-01T03:33:25;98279.97;;;16.63;100.00
12594;BME280;6362;50.208;9.182;2023-08-01T03:35:51;98265.25;;;16.60;100.00
12594;BME280;6362;50.208;9.182;2023-08-01T03:38:17;98280.22;;;16.58;100.00
12594;BME280;6362;50.208;9.182;2023-08-01T03:40:42;98295.41;;;16.53;100.00
12594;BME280;6362;50.208;9.182;2023-08-01T03:43:07;98280.59;;;16.52;100.00
12594;BME280;6362;50.208;9.182;2023-08-01T03:45:35;98268.41;;;16.51;100.00
12594;BME280;6362;50.208;9.182;2023-08-01T03:48:00;98281.53;;;16.51;100.00
12594;BME280;6362;50.208;9.182;2023-08-01T03:50:26;98277.28;;;16.49;100.00
12594;BME280;6362;50.208;9.182;2023-08-01T03:52:51;98262.22;;;16.52;100.00
12594;BME280;6362;50.208;9.182;2023-08-01T03:55:17;98267.88;;;16.60;100.00
12594;BME280;6362;50.208;9.182;2023-08-01T03:57:42;98265.78;;;16.51;100.00
12594;BME280;6362;50.208;9.182;2023-08-01T04:00:08;98261.75;;;16.60;100.00
12594;BME280;6362;50.208;9.182;2023-08-01T04:02:43;98272.63;;;16.54;100.00
12594;BME280;6362;50.208;9.182;2023-08-01T04:05:09;98254.25;;;16.54;100.00
12594;BME280;6362;50.208;9.182;2023-08-01T04:07:36;98244.44;;;16.57;100.00
12594;BME280;6362;50.208;9.182;2023-08-01T04:10:02;98237.41;;;16.58;100.00
12594;BME280;6362;50.208;9.182;2023-08-01T04:12:28;98216.25;;;16.61;100.00
12594;BME280;6362;50.208;9.182;2023-08-01T04:14:54;98215.41;;;16.60;100.00
12594;BME280;6362;50.208;9.182;2023-08-01T04:17:19;98214.81;;;16.55;100.00
12594;BME280;6362;50.208;9.182;2023-08-01T04:19:44;98225.97;;;16.59;100.00
12594;BME280;6362;50.208;9.182;2023-08-01T04:22:10;98209.38;;;16.58;100.00
12594;BME280;6362;50.208;9.182;2023-08-01T04:24:35;98200.50;;;16.61;100.00
12594;BME280;6362;50.208;9.182;2023-08-01T04:27:01;98219.69;;;16.61;100.00
12594;BME280;6362;50.208;9.182;2023-08-01T04:29:26;98239.75;;;16.62;100.00
12594;BME280;6362;50.208;9.182;2023-08-01T04:31:51;98235.44;;;16.61;100.00
12594;BME280;6362;50.208;9.182;2023-08-01T04:34:17;98236.94;;;16.66;100.00
12594;BME280;6362;50.208;9.182;2023-08-01T04:36:42;98241.34;;;16.65;100.00
12594;BME280;6362;50.208;9.182;2023-08-01T04:39:08;98252.63;;;16.67;100.00
12594;BME280;6362;50.208;9.182;2023-08-01T04:41:33;98257.03;;;16.67;100.00
12594;BME280;6362;50.208;9.182;2023-08-01T04:43:58;98253.63;;;16.64;100.00
12594;BME280;6362;50.208;9.182;2023-08-01T04:46:24;98259.31;;;16.73;100.00
12594;BME280;6362;50.208;9.182;2023-08-01T04:48:49;98255.59;;;16.77;100.00
12594;BME280;6362;50.208;9.182;2023-08-01T04:51:15;98250.88;;;16.82;100.00
12594;BME280;6362;50.208;9.182;2023-08-01T04:53:40;98261.22;;;16.69;100.00
12594;BME280;6362;50.208;9.182;2023-08-01T04:56:06;98256.59;;;16.74;100.00
12594;BME280;6362;50.208;9.182;2023-08-01T04:58:31;98255.75;;;16.74;100.00
12594;BME280;6362;50.208;9.182;2023-08-01T05:00:56;98264.56;;;16.73;100.00
12594;BME280;6362;50.208;9.182;2023-08-01T05:03:22;98261.09;;;16.72;100.00
12594;BME280;6362;50.208;9.182;2023-08-01T05:05:47;98267.09;;;16.74;100.00
12594;BME280;6362;50.208;9.182;2023-08-01T05:08:13;98270.78;;;16.70;100.00
12594;BME280;6362;50.208;9.182;2023-08-01T05:10:38;98276.16;;;16.69;100.00
12594;BME280;6362;50.208;9.182;2023-08-01T05:13:04;98277.81;;;16.70;100.00
12594;BME280;6362;50.208;9.182;2023-08-01T05:15:29;98282.22;;;16.69;100.00
12594;BME280;6362;50.208;9.182;2023-08-01T05:17:55;98285.69;;;16.70;100.00
12594;BME280;6362;50.208;9.182;2023-08-01T05:20:21;98277.94;;;16.68;100.00
12594;BME280;6362;50.208;9.182;2023-08-01T05:22:46;98272.38;;;16.58;100.00
12594;BME280;6362;50.208;9.182;2023-08-01T05:25:12;98268.22;;;16.54;100.00
12594;BME280;6362;50.208;9.182;2023-08-01T05:27:37;98261.47;;;16.50;100.00
12594;BME280;6362;50.208;9.182;2023-08-01T05:30:03;98256.13;;;16.52;100.00
12594;BME280;6362;50.208;9.182;2023-08-01T05:32:28;98235.59;;;16.44;100.00
12594;BME280;6362;50.208;9.182;2023-08-01T05:34:54;98200.94;;;16.53;100.00
12594;BME280;6362;50.208;9.182;2023-08-01T05:37:19;98228.13;;;16.52;100.00
12594;BME280;6362;50.208;9.182;2023-08-01T05:39:44;98228.13;;;16.52;100.00
12594;BME280;6362;50.208;9.182;2023-08-01T05:42:10;98232.72;;;16.63;100.00
12594;BME280;6362;50.208;9.182;2023-08-01T05:44:35;98233.09;;;16.57;100.00
12594;BME280;6362;50.208;9.182;2023-08-01T05:47:01;98228.16;;;16.67;100.00
12594;BME280;6362;50.208;9.182;2023-08-01T05:49:26;98221.13;;;16.67;100.00
12594;BME280;6362;50.208;9.182;2023-08-01T05:51:51;98217.56;;;16.68;100.00
12594;BME280;6362;50.208;9.182;2023-08-01T05:54:17;98232.22;;;16.72;100.00
12594;BME280;6362;50.208;9.182;2023-08-01T05:56:42;98230.78;;;16.67;100.00
12594;BME280;6362;50.208;9.182;2023-08-01T05:59:08;98214.94;;;16.68;100.00
12594;BME280;6362;50.208;9.182;2023-08-01T06:01:34;98215.44;;;16.75;100.00
12594;BME280;6362;50.208;9.182;2023-08-01T06:03:59;98205.38;;;16.67;100.00
12594;BME280;6362;50.208;9.182;2023-08-01T06:06:25;98194.03;;;16.67;100.00
12594;BME280;6362;50.208;9.182;2023-08-01T06:08:50;98194.66;;;16.70;100.00
12594;BME280;6362;50.208;9.182;2023-08-01T06:11:17;98203.00;;;16.62;100.00
12594;BME280;6362;50.208;9.182;2023-08-01T06:13:42;98201.13;;;16.64;100.00
12594;BME280;6362;50.208;9.182;2023-08-01T06:16:07;98190.84;;;16.61;100.00
12594;BME280;6362;50.208;9.182;2023-08-01T06:18:33;98206.56;;;16.61;100.00
12594;BME280;6362;50.208;9.182;2023-08-01T06:20:58;98208.63;;;16.56;100.00
12594;BME280;6362;50.208;9.182;2023-08-01T06:23:24;98200.19;;;16.51;100.00
12594;BME280;6362;50.208;9.182;2023-08-01T06:25:49;98206.44;;;16.49;100.00
12594;BME280;6362;50.208;9.182;2023-08-01T06:28:15;98185.56;;;16.47;100.00
12594;BME280;6362;50.208;9.182;2023-08-01T06:30:40;98224.59;;;16.37;100.00
12594;BME280;6362;50.208;9.182;2023-08-01T06:33:05;98210.63;;;16.37;100.00
12594;BME280;6362;50.208;9.182;2023-08-01T06:35:31;98228.25;;;16.35;100.00
12594;BME280;6362;50.208;9.182;2023-08-01T06:37:56;98229.94;;;16.36;100.00
12594;BME280;6362;50.208;9.182;2023-08-01T06:40:22;98239.50;;;16.37;100.00
12594;BME280;6362;50.208;9.182;2023-08-01T06:42:47;98245.69;;;16.36;100.00
12594;BME280;6362;50.208;9.182;2023-08-01T06:45:13;98256.09;;;16.37;100.00
12594;BME280;6362;50.208;9.182;2023-08-01T06:47:38;98264.06;;;16.36;100.00
12594;BME280;6362;50.208;9.182;2023-08-01T06:50:04;98272.59;;;16.40;100.00
12594;BME280;6362;50.208;9.182;2023-08-01T06:52:30;98284.81;;;16.25;100.00
12594;BME280;6362;50.208;9.182;2023-08-01T06:54:55;98304.81;;;16.12;100.00
12594;BME280;6362;50.208;9.182;2023-08-01T06:57:21;98297.00;;;16.10;100.00
12594;BME280;6362;50.208;9.182;2023-08-01T06:59:46;98286.63;;;15.93;100.00
12594;BME280;6362;50.208;9.182;2023-08-01T07:02:11;98300.66;;;15.92;100.00
12594;BME280;6362;50.208;9.182;2023-08-01T07:04:37;98312.25;;;15.88;100.00
12594;BME280;6362;50.208;9.182;2023-08-01T07:07:03;98307.94;;;15.87;100.00
12594;BME280;6362;50.208;9.182;2023-08-01T07:09:28;98307.44;;;15.80;100.00
12594;BME280;6362;50.208;9.182;2023-08-01T07:11:54;98313.59;;;15.79;100.00
12594;BME280;6362;50.208;9.182;2023-08-01T07:14:20;98318.34;;;15.88;100.00
12594;BME280;6362;50.208;9.182;2023-08-01T07:16:45;98308.03;;;15.85;100.00
12594;BME280;6362;50.208;9.182;2023-08-01T07:19:10;98317.16;;;15.78;100.00
12594;BME280;6362;50.208;9.182;2023-08-01T07:21:36;98321.28;;;15.82;100.00
12594;BME280;6362;50.208;9.182;2023-08-01T07:24:01;98314.19;;;15.84;100.00
12594;BME280;6362;50.208;9.182;2023-08-01T07:26:27;98308.19;;;15.82;100.00
12594;BME280;6362;50.208;9.182;2023-08-01T07:28:54;98313.78;;;15.92;100.00
12594;BME280;6362;50.208;9.182;2023-08-01T07:31:19;98318.31;;;16.04;100.00
12594;BME280;6362;50.208;9.182;2023-08-01T07:33:45;98317.31;;;16.22;100.00
12594;BME280;6362;50.208;9.182;2023-08-01T07:36:10;98319.22;;;16.50;100.00
12594;BME280;6362;50.208;9.182;2023-08-01T07:38:36;98324.25;;;16.69;100.00
12594;BME280;6362;50.208;9.182;2023-08-01T07:41:05;98329.84;;;16.93;100.00
12594;BME280;6362;50.208;9.182;2023-08-01T07:43:32;98326.78;;;17.15;100.00
12594;BME280;6362;50.208;9.182;2023-08-01T07:45:58;98331.69;;;17.21;100.00
12594;BME280;6362;50.208;9.182;2023-08-01T07:48:24;98337.72;;;17.23;100.00
12594;BME280;6362;50.208;9.182;2023-08-01T07:50:50;98334.72;;;17.29;100.00
12594;BME280;6362;50.208;9.182;2023-08-01T07:53:15;98326.72;;;17.31;100.00
12594;BME280;6362;50.208;9.182;2023-08-01T07:55:41;98335.28;;;17.34;100.00
12594;BME280;6362;50.208;9.182;2023-08-01T07:58:06;98330.84;;;17.35;100.00
12594;BME280;6362;50.208;9.182;2023-08-01T08:00:34;98337.06;;;17.34;100.00
12594;BME280;6362;50.208;9.182;2023-08-01T08:02:59;98336.69;;;17.40;100.00
12594;BME280;6362;50.208;9.182;2023-08-01T08:05:25;98334.53;;;17.47;100.00
12594;BME280;6362;50.208;9.182;2023-08-01T08:07:50;98337.72;;;17.52;100.00
12594;BME280;6362;50.208;9.182;2023-08-01T08:10:16;98339.22;;;17.56;100.00
12594;BME280;6362;50.208;9.182;2023-08-01T08:12:41;98342.41;;;17.61;100.00
12594;BME280;6362;50.208;9.182;2023-08-01T08:15:07;98340.06;;;17.56;98.63
12594;BME280;6362;50.208;9.182;2023-08-01T08:17:32;98345.50;;;17.53;95.24
12594;BME280;6362;50.208;9.182;2023-08-01T08:19:58;98342.03;;;17.38;96.25
12594;BME280;6362;50.208;9.182;2023-08-01T08:22:23;98344.56;;;17.40;98.31
12594;BME280;6362;50.208;9.182;2023-08-01T08:24:49;98359.88;;;17.33;97.62
12594;BME280;6362;50.208;9.182;2023-08-01T08:27:14;98363.34;;;17.34;98.57
12594;BME280;6362;50.208;9.182;2023-08-01T08:29:40;98366.34;;;17.28;98.31
12594;BME280;6362;50.208;9.182;2023-08-01T08:32:06;98382.84;;;17.30;100.00
12594;BME280;6362;50.208;9.182;2023-08-01T08:34:31;98388.56;;;17.36;100.00
12594;BME280;6362;50.208;9.182;2023-08-01T08:36:57;98383.16;;;17.54;100.00
12594;BME280;6362;50.208;9.182;2023-08-01T08:39:22;98378.97;;;17.80;97.81
12594;BME280;6362;50.208;9.182;2023-08-01T08:41:50;98383.56;;;18.05;98.90
12594;BME280;6362;50.208;9.182;2023-08-01T08:44:18;98374.53;;;18.36;96.21
12594;BME280;6362;50.208;9.182;2023-08-01T08:46:53;98379.44;;;18.69;94.31
12594;BME280;6362;50.208;9.182;2023-08-01T08:49:19;98375.94;;;18.95;88.01
12594;BME280;6362;50.208;9.182;2023-08-01T08:51:47;98384.94;;;19.18;88.84
12594;BME280;6362;50.208;9.182;2023-08-01T08:54:13;98385.34;;;19.25;85.97
12594;BME280;6362;50.208;9.182;2023-08-01T08:56:40;98378.81;;;19.31;81.34
12594;BME280;6362;50.208;9.182;2023-08-01T08:59:07;98387.78;;;19.28;83.86
12594;BME280;6362;50.208;9.182;2023-08-01T09:01:33;98381.56;;;19.29;85.65
12594;BME280;6362;50.208;9.182;2023-08-01T09:03:59;98384.00;;;19.32;86.04
12594;BME280;6362;50.208;9.182;2023-08-01T09:06:31;98375.75;;;19.11;79.38
12594;BME280;6362;50.208;9.182;2023-08-01T09:09:12;98380.06;;;19.12;80.62
12594;BME280;6362;50.208;9.182;2023-08-01T09:14:09;98366.69;;;19.53;79.18
12594;BME280;6362;50.208;9.182;2023-08-01T09:16:35;98370.28;;;19.65;75.01
12594;BME280;6362;50.208;9.182;2023-08-01T09:19:01;98379.63;;;20.08;75.45
12594;BME280;6362;50.208;9.182;2023-08-01T09:21:27;98374.28;;;20.33;72.15
12594;BME280;6362;50.208;9.182;2023-08-01T09:23:58;98380.19;;;20.00;71.32
12594;BME280;6362;50.208;9.182;2023-08-01T09:26:24;98378.00;;;19.68;71.24
12594;BME280;6362;50.208;9.182;2023-08-01T09:28:56;98373.56;;;19.82;73.88
12594;BME280;6362;50.208;9.182;2023-08-01T09:31:36;98382.34;;;20.19;77.98
12594;BME280;6362;50.208;9.182;2023-08-01T09:34:03;98375.00;;;20.35;73.97
12594;BME280;6362;50.208;9.182;2023-08-01T09:36:30;98381.97;;;20.73;70.34
12594;BME280;6362;50.208;9.182;2023-08-01T09:39:01;98371.19;;;21.11;65.25
12594;BME280;6362;50.208;9.182;2023-08-01T09:41:30;98387.94;;;20.88;63.01
12594;BME280;6362;50.208;9.182;2023-08-01T09:43:56;98385.78;;;20.69;63.23
12594;BME280;6362;50.208;9.182;2023-08-01T09:46:22;98382.66;;;20.88;67.30
12594;BME280;6362;50.208;9.182;2023-08-01T09:48:48;98385.16;;;21.24;64.96
12594;BME280;6362;50.208;9.182;2023-08-01T09:51:15;98373.66;;;21.37;63.00
12594;BME280;6362;50.208;9.182;2023-08-01T09:53:55;98381.13;;;21.54;65.34
12594;BME280;6362;50.208;9.182;2023-08-01T09:56:22;98372.75;;;21.94;63.37
12594;BME280;6362;50.208;9.182;2023-08-01T09:58:49;98367.31;;;22.06;60.02
12594;BME280;6362;50.208;9.182;2023-08-01T10:01:20;98370.94;;;21.60;60.34
12594;BME280;6362;50.208;9.182;2023-08-01T10:03:47;98360.94;;;21.98;57.21
12594;BME280;6362;50.208;9.182;2023-08-01T10:06:19;98365.03;;;22.13;59.04
12594;BME280;6362;50.208;9.182;2023-08-01T10:08:46;98362.59;;;22.44;60.03
12594;BME280;6362;50.208;9.182;2023-08-01T10:11:17;98362.03;;;22.18;57.86
12594;BME280;6362;50.208;9.182;2023-08-01T10:13:43;98365.75;;;21.70;59.80
12594;BME280;6362;50.208;9.182;2023-08-01T10:16:09;98361.44;;;21.80;59.23
12594;BME280;6362;50.208;9.182;2023-08-01T10:18:36;98366.00;;;22.01;58.16
12594;BME280;6362;50.208;9.182;2023-08-01T10:21:04;98361.88;;;22.08;58.23
12594;BME280;6362;50.208;9.182;2023-08-01T10:23:32;98360.03;;;22.42;58.28
12594;BME280;6362;50.208;9.182;2023-08-01T10:25:59;98355.47;;;22.44;58.25
12594;BME280;6362;50.208;9.182;2023-08-01T10:28:35;98364.00;;;22.91;62.16
12594;BME280;6362;50.208;9.182;2023-08-01T10:31:13;98370.75;;;23.16;55.81
12594;BME280;6362;50.208;9.182;2023-08-01T10:33:41;98363.19;;;23.11;51.65
12594;BME280;6362;50.208;9.182;2023-08-01T10:36:17;98351.53;;;23.03;51.13
12594;BME280;6362;50.208;9.182;2023-08-01T10:38:56;98357.63;;;22.94;52.17
12594;BME280;6362;50.208;9.182;2023-08-01T10:41:29;98350.59;;;22.92;52.74
12594;BME280;6362;50.208;9.182;2023-08-01T10:44:15;98358.56;;;22.92;51.83
12594;BME280;6362;50.208;9.182;2023-08-01T10:46:52;98361.88;;;23.27;53.13
12594;BME280;6362;50.208;9.182;2023-08-01T10:49:19;98364.50;;;23.68;51.80
12594;BME280;6362;50.208;9.182;2023-08-01T10:51:45;98361.94;;;23.36;48.46
12594;BME280;6362;50.208;9.182;2023-08-01T10:54:21;98358.97;;;23.09;49.89
12594;BME280;6362;50.208;9.182;2023-08-01T10:56:47;98371.25;;;22.78;51.22
12594;BME280;6362;50.208;9.182;2023-08-01T10:59:14;98372.31;;;22.43;51.97
12594;BME280;6362;50.208;9.182;2023-08-01T11:01:48;98378.06;;;22.16;52.95
12594;BME280;6362;50.208;9.182;2023-08-01T11:04:18;98385.03;;;21.72;57.37
12594;BME280;6362;50.208;9.182;2023-08-01T11:06:46;98393.28;;;21.10;61.18
12594;BME280;6362;50.208;9.182;2023-08-01T11:09:30;98416.22;;;20.38;64.40
12594;BME280;6362;50.208;9.182;2023-08-01T11:11:57;98419.16;;;19.84;66.93
12594;BME280;6362;50.208;9.182;2023-08-01T11:14:26;98413.97;;;19.57;68.23
12594;BME280;6362;50.208;9.182;2023-08-01T11:16:55;98413.38;;;19.66;70.12
12594;BME280;6362;50.208;9.182;2023-08-01T11:19:27;98405.34;;;20.29;70.77
12594;BME280;6362;50.208;9.182;2023-08-01T11:21:54;98411.06;;;21.08;66.58
12594;BME280;6362;50.208;9.182;2023-08-01T11:24:22;98415.56;;;21.87;67.57
12594;BME280;6362;50.208;9.182;2023-08-01T11:26:49;98416.84;;;22.72;64.08
12594;BME280;6362;50.208;9.182;2023-08-01T11:29:16;98410.00;;;23.43;62.35
12594;BME280;6362;50.208;9.182;2023-08-01T11:31:59;98402.09;;;23.94;61.14
12594;BME280;6362;50.208;9.182;2023-08-01T11:34:25;98407.47;;;24.14;60.59
12594;BME280;6362;50.208;9.182;2023-08-01T11:36:51;98417.38;;;23.81;56.72
12594;BME280;6362;50.208;9.182;2023-08-01T11:39:17;98417.41;;;23.39;56.72
12594;BME280;6362;50.208;9.182;2023-08-01T11:41:44;98407.88;;;23.37;56.30
12594;BME280;6362;50.208;9.182;2023-08-01T11:44:10;98418.84;;;23.43;58.13
12594;BME280;6362;50.208;9.182;2023-08-01T11:46:37;98429.88;;;23.28;59.70
12594;BME280;6362;50.208;9.182;2023-08-01T11:49:03;98427.13;;;22.97;61.73
12594;BME280;6362;50.208;9.182;2023-08-01T11:51:29;98427.53;;;22.70;63.53
12594;BME280;6362;50.208;9.182;2023-08-01T11:54:04;98425.22;;;22.22;63.42
12594;BME280;6362;50.208;9.182;2023-08-01T11:56:33;98433.63;;;21.94;64.98
12594;BME280;6362;50.208;9.182;2023-08-01T11:58:58;98435.66;;;21.68;66.23
12594;BME280;6362;50.208;9.182;2023-08-01T12:01:24;98436.19;;;22.29;68.83
12594;BME280;6362;50.208;9.182;2023-08-01T12:03:52;98439.59;;;22.63;67.60
12594;BME280;6362;50.208;9.182;2023-08-01T12:06:20;98437.84;;;22.96;67.81
12594;BME280;6362;50.208;9.182;2023-08-01T12:08:48;98442.19;;;23.70;62.48
12594;BME280;6362;50.208;9.182;2023-08-01T12:11:27;98434.06;;;24.23;58.96
12594;BME280;6362;50.208;9.182;2023-08-01T12:16:30;98432.47;;;25.11;51.60
12594;BME280;6362;50.208;9.182;2023-08-01T12:18:57;98434.56;;;25.17;53.94
12594;BME280;6362;50.208;9.182;2023-08-01T12:21:23;98435.09;;;25.60;50.78
12594;BME280;6362;50.208;9.182;2023-08-01T12:23:48;98436.38;;;26.40;52.99
12594;BME280;6362;50.208;9.182;2023-08-01T12:26:14;98426.13;;;26.35;48.42
12594;BME280;6362;50.208;9.182;2023-08-01T12:28:39;98431.47;;;26.35;49.56
12594;BME280;6362;50.208;9.182;2023-08-01T12:31:05;98432.53;;;25.68;50.17
12594;BME280;6362;50.208;9.182;2023-08-01T12:33:32;98428.13;;;25.10;48.40
12594;BME280;6362;50.208;9.182;2023-08-01T12:35:59;98424.56;;;24.71;53.80
12594;BME280;6362;50.208;9.182;2023-08-01T12:38:24;98431.75;;;24.09;53.85
12594;BME280;6362;50.208;9.182;2023-08-01T12:40:50;98448.09;;;23.74;56.51
12594;BME280;6362;50.208;9.182;2023-08-01T12:43:15;98459.81;;;22.75;58.88
12594;BME280;6362;50.208;9.182;2023-08-01T12:45:42;98501.16;;;21.53;64.89
12594;BME280;6362;50.208;9.182;2023-08-01T12:48:07;98492.34;;;20.93;69.75
12594;BME280;6362;50.208;9.182;2023-08-01T12:50:32;98487.63;;;20.49;73.70
12594;BME280;6362;50.208;9.182;2023-08-01T12:52:58;98473.88;;;20.31;77.10
12594;BME280;6362;50.208;9.182;2023-08-01T12:55:23;98467.56;;;20.21;73.67
12594;BME280;6362;50.208;9.182;2023-08-01T12:57:50;98465.00;;;20.32;75.39
12594;BME280;6362;50.208;9.182;2023-08-01T13:00:16;98459.63;;;20.70;73.40
12594;BME280;6362;50.208;9.182;2023-08-01T13:02:41;98466.06;;;21.27;74.56
12594;BME280;6362;50.208;9.182;2023-08-01T13:05:07;98475.63;;;21.41;68.99
12594;BME280;6362;50.208;9.182;2023-08-01T13:07:32;98475.78;;;21.50;72.31